Cresthill, Illinois
Current Conditions -  °F | °C
As of 10:55 AM on Thursday 23 Oct 2014 (Local Time) from KLOT Reporting Station
Clear Clear  
Wind Chill: 53°   Ceiling: Unl
Heat Index: 53°   Visibility: 10mi
Dew Point: 42°   Wind: 10mph
Humidity: 66%   Direction: 230°SW
Pressure: 30.21"   Gusts: NA
Location:  41.6°N, 88.12°W
Report Text: KLOT 231555Z AUTO 23009KT 200V260 10SM CLR 12/06 A3021 RMK AO2 T01170055
Loading
Personal Weather Stations






























Interactive Weather Map
Tropical Storm Tracking
New forecast layout! Learn more

10-Day Weather Forecast

Advertisements
Track Severe Weather on mobile